Time;durP1;ratioP1;P1;durP2;ratioP2;P2;SDS_P1;SDS_P2;PMS_P1;PMS_P2;Temp;Humidity;BMP_temperature;BMP_pressure;BME280_temperature;BME280_humidity;BME280_pressure;Samples;Min_cycle;Max_cycle;Signal;HPM_P1;HPM_P2
2021/01/23 00:02:04;;;;;;;79.47;51.70;;;;;;;3.47;84.13;97291.36;119193;1150;65216;-77
2021/01/23 00:04:30;;;;;;;84.95;52.20;;;;;;;3.43;83.87;97281.98;119224;1150;65133;-76
2021/01/23 00:06:57;;;;;;;80.97;53.27;;;;;;;3.41;83.85;97279.44;119186;1150;65144;-76
2021/01/23 00:09:24;;;;;;;83.43;55.97;;;;;;;3.38;83.88;97276.18;119232;1150;65188;-76
2021/01/23 00:11:50;;;;;;;88.90;56.92;;;;;;;3.35;83.94;97277.22;119232;1150;65592;-76
2021/01/23 00:14:17;;;;;;;87.70;56.23;;;;;;;3.32;83.80;97271.30;119191;1150;65088;-76
2021/01/23 00:16:43;;;;;;;84.07;56.30;;;;;;;3.28;83.72;97275.92;119237;1150;65201;-76
2021/01/23 00:19:10;;;;;;;84.03;53.57;;;;;;;3.26;83.86;97277.80;119220;1150;65210;-75
2021/01/23 00:21:36;;;;;;;80.00;51.33;;;;;;;3.21;84.19;97280.77;119248;1150;65148;-76
2021/01/23 00:24:05;;;;;;;82.37;52.83;;;;;;;3.20;84.31;97272.95;119188;1150;65130;-76
2021/01/23 00:26:32;;;;;;;83.90;55.30;;;;;;;3.21;84.39;97274.63;119100;1150;65197;-75
2021/01/23 00:28:58;;;;;;;80.57;54.50;;;;;;;3.24;84.08;97271.82;118682;1150;65100;-78
2021/01/23 00:31:25;;;;;;;80.33;54.97;;;;;;;3.26;84.17;97278.64;118650;1150;65136;-78
2021/01/23 00:33:51;;;;;;;80.40;57.20;;;;;;;3.27;84.26;97274.25;118680;1150;65139;-76
2021/01/23 00:36:17;;;;;;;88.27;57.70;;;;;;;3.30;84.25;97272.25;118641;1149;65148;-76
2021/01/23 00:38:44;;;;;;;90.47;61.17;;;;;;;3.35;84.19;97271.12;118615;1150;65290;-76
2021/01/23 00:41:11;;;;;;;93.53;60.97;;;;;;;3.37;84.40;97267.44;118835;1150;65156;-78
2021/01/23 00:43:37;;;;;;;96.40;62.67;;;;;;;3.39;84.30;97267.33;119018;1151;65131;-77
2021/01/23 00:46:04;;;;;;;85.40;59.13;;;;;;;3.38;84.06;97270.91;119198;1151;65076;-76
2021/01/23 00:48:31;;;;;;;89.35;59.35;;;;;;;3.37;83.94;97258.67;119198;1150;65127;-76
2021/01/23 00:50:58;;;;;;;87.13;56.87;;;;;;;3.36;83.72;97251.73;119235;1150;65031;-76
2021/01/23 00:53:24;;;;;;;85.50;57.20;;;;;;;3.38;84.04;97263.85;119258;1150;65140;-76
2021/01/23 00:55:51;;;;;;;77.00;54.45;;;;;;;3.39;83.95;97254.99;119206;1150;65121;-76
2021/01/23 00:58:17;;;;;;;77.75;53.80;;;;;;;3.40;84.12;97251.44;119228;1150;65191;-77
2021/01/23 01:00:43;;;;;;;73.37;52.60;;;;;;;3.42;84.02;97246.05;119036;1150;65104;-77
2021/01/23 01:03:11;;;;;;;76.10;53.90;;;;;;;3.40;84.43;97240.91;119214;1151;65573;-76
2021/01/23 01:05:37;;;;;;;81.97;55.67;;;;;;;3.39;84.15;97243.63;119018;1149;65140;-76
2021/01/23 01:08:04;;;;;;;78.33;52.90;;;;;;;3.37;83.67;97234.98;118643;1149;65098;-76
2021/01/23 01:10:30;;;;;;;74.90;51.47;;;;;;;3.35;84.18;97240.36;118620;1151;65139;-77
2021/01/23 01:12:57;;;;;;;73.00;49.87;;;;;;;3.35;84.14;97239.52;119210;1150;65127;-75
2021/01/23 01:15:23;;;;;;;71.50;47.97;;;;;;;3.36;84.01;97228.03;118653;1150;65137;-78
2021/01/23 01:17:49;;;;;;;66.97;45.60;;;;;;;3.36;84.49;97223.61;118804;1150;65111;-77
2021/01/23 01:20:16;;;;;;;71.93;50.37;;;;;;;3.36;84.17;97215.70;119245;1150;65143;-76
2021/01/23 01:22:42;;;;;;;75.23;52.93;;;;;;;3.36;84.34;97217.50;119246;1150;65101;-77
2021/01/23 01:25:09;;;;;;;83.97;55.93;;;;;;;3.30;84.26;97210.86;119217;1149;65108;-77
2021/01/23 01:27:35;;;;;;;78.40;54.53;;;;;;;3.27;84.54;97216.33;119257;1150;65239;-77
2021/01/23 01:30:04;;;;;;;81.47;53.50;;;;;;;3.23;84.59;97213.03;119265;1150;65172;-75
2021/01/23 01:32:30;;;;;;;78.85;52.90;;;;;;;3.21;84.69;97204.42;119307;1149;65159;-77
2021/01/23 01:34:57;;;;;;;72.95;49.95;;;;;;;3.20;84.57;97207.14;119126;1150;65140;-78
2021/01/23 01:37:23;;;;;;;74.63;49.17;;;;;;;3.22;84.86;97200.83;119216;1150;65121;-78
2021/01/23 01:39:49;;;;;;;72.10;47.13;;;;;;;3.24;84.58;97201.58;118913;1150;65127;-77
2021/01/23 01:42:16;;;;;;;73.50;49.20;;;;;;;3.24;84.84;97206.84;119133;1151;65532;-77
2021/01/23 01:44:42;;;;;;;69.05;48.75;;;;;;;3.26;84.71;97197.03;119249;1149;65127;-77
2021/01/23 01:47:09;;;;;;;70.67;49.87;;;;;;;3.25;84.41;97203.25;119269;1150;65123;-76
2021/01/23 01:49:36;;;;;;;65.53;47.07;;;;;;;3.24;84.29;97200.74;119243;1150;65040;-76
2021/01/23 01:52:02;;;;;;;69.17;46.00;;;;;;;3.24;84.61;97198.95;119273;1150;65232;-76
2021/01/23 01:54:29;;;;;;;61.67;42.87;;;;;;;3.24;84.02;97198.95;119220;1150;65303;-76
2021/01/23 01:56:56;;;;;;;55.10;40.33;;;;;;;3.25;84.53;97197.99;119098;1150;65127;-76
2021/01/23 01:59:22;;;;;;;56.77;38.43;;;;;;;3.28;84.19;97199.58;119197;1150;65223;-76
2021/01/23 02:02:09;;;;;;;54.30;38.30;;;;;;;3.32;84.58;97198.45;119175;1149;65123;-76
2021/01/23 02:04:35;;;;;;;64.97;43.73;;;;;;;3.34;84.36;97193.89;118669;1150;65137;-76
2021/01/23 02:07:30;;;;;;;62.33;40.27;;;;;;;3.35;84.46;97186.87;118616;1150;65095;-77
2021/01/23 02:10:26;;;;;;;56.95;38.55;;;;;;;3.38;84.56;97181.39;119246;1150;65031;-76
2021/01/23 02:13:02;;;;;;;52.10;38.45;;;;;;;3.38;84.02;97184.86;119225;1150;65044;-76
2021/01/23 02:15:34;;;;;;;48.35;33.05;;;;;;;3.40;84.37;97182.14;119248;1150;65228;-76
2021/01/23 02:18:07;;;;;;;47.13;31.80;;;;;;;3.37;84.02;97172.66;119252;1151;65156;-76
2021/01/23 02:20:49;;;;;;;47.03;31.90;;;;;;;3.37;84.62;97174.42;119244;1150;65236;-76
2021/01/23 02:23:22;;;;;;;48.20;33.60;;;;;;;3.37;84.58;97171.78;119233;1150;65139;-76
2021/01/23 02:26:05;;;;;;;49.33;36.10;;;;;;;3.34;84.60;97167.56;119243;1148;65104;-78
2021/01/23 02:28:57;;;;;;;49.07;37.30;;;;;;;3.35;84.26;97165.80;119236;1150;65136;-76
2021/01/23 02:31:26;;;;;;;42.77;30.47;;;;;;;3.37;84.64;97161.25;119215;1150;65182;-76
2021/01/23 02:33:57;;;;;;;44.23;29.57;;;;;;;3.38;84.31;97160.33;119251;1150;65169;-76
2021/01/23 02:36:25;;;;;;;41.50;29.90;;;;;;;3.40;84.50;97153.17;119258;1150;65107;-76
2021/01/23 02:38:53;;;;;;;46.47;30.03;;;;;;;3.40;84.32;97156.64;119292;1150;65594;-76
2021/01/23 02:41:20;;;;;;;52.10;33.10;;;;;;;3.42;84.58;97154.76;119320;1150;65121;-76
2021/01/23 02:43:47;;;;;;;42.47;31.30;;;;;;;3.44;84.25;97152.00;118798;1150;65374;-76
2021/01/23 02:46:16;;;;;;;46.70;31.90;;;;;;;3.43;84.42;97138.00;119163;1150;65241;-76
2021/01/23 02:48:44;;;;;;;38.57;29.43;;;;;;;3.41;84.36;97142.52;119006;1150;65146;-76
2021/01/23 02:51:49;;;;;;;36.63;27.10;;;;;;;3.42;84.70;97156.52;119239;1150;65118;-76
2021/01/23 02:54:27;;;;;;;37.47;26.80;;;;;;;3.41;84.29;97150.42;119212;1151;65127;-76
2021/01/23 02:56:55;;;;;;;37.93;27.07;;;;;;;3.39;84.09;97139.14;119204;1151;65145;-76
2021/01/23 02:59:23;;;;;;;35.30;24.30;;;;;;;3.37;84.69;97138.42;119242;1150;65213;-75
2021/01/23 03:01:51;;;;;;;36.53;25.27;;;;;;;3.37;84.43;97133.16;119242;1149;65190;-76
2021/01/23 03:04:21;;;;;;;39.97;27.77;;;;;;;3.39;84.48;97138.30;119222;1151;65114;-77
2021/01/23 03:06:48;;;;;;;36.15;28.00;;;;;;;3.40;84.51;97153.17;119253;1149;65200;-76
2021/01/23 03:09:19;;;;;;;39.20;28.25;;;;;;;3.38;84.25;97145.37;119247;1150;65169;-76
2021/01/23 03:11:47;;;;;;;47.50;39.93;;;;;;;3.35;84.46;97139.48;119041;1150;65119;-76
2021/01/23 03:14:14;;;;;;;44.43;32.40;;;;;;;3.37;84.58;97141.06;118908;1149;65226;-76
2021/01/23 03:16:51;;;;;;;44.13;32.93;;;;;;;3.40;84.67;97140.01;119149;1150;65107;-76
2021/01/23 03:19:18;;;;;;;31.60;25.97;;;;;;;3.43;84.74;97137.16;119226;1149;65120;-76
2021/01/23 03:21:47;;;;;;;32.17;24.10;;;;;;;3.50;85.18;97136.64;119250;1150;65283;-75
2021/01/23 03:24:14;;;;;;;30.63;22.63;;;;;;;3.58;85.02;97129.98;119300;1150;65207;-78
2021/01/23 03:26:41;;;;;;;28.33;19.37;;;;;;;3.66;85.14;97133.80;119240;1150;65094;-77
2021/01/23 03:29:08;;;;;;;25.97;18.93;;;;;;;3.76;85.23;97112.07;119232;1150;65540;-76
2021/01/23 03:31:35;;;;;;;28.27;21.57;;;;;;;3.81;84.88;97108.16;119236;1150;65143;-78
2021/01/23 03:34:03;;;;;;;39.77;23.70;;;;;;;3.86;84.69;97108.69;118889;1149;65187;-76
2021/01/23 03:36:30;;;;;;;29.37;20.53;;;;;;;3.91;84.80;97121.55;119261;1150;65204;-76
2021/01/23 03:38:57;;;;;;;27.77;18.97;;;;;;;3.95;84.64;97108.05;119216;1150;65127;-76
2021/01/23 03:41:24;;;;;;;29.47;19.17;;;;;;;4.01;84.50;97104.14;119294;1150;65114;-78
2021/01/23 03:43:50;;;;;;;29.27;20.07;;;;;;;4.08;84.80;97104.53;119245;1150;65079;-76
2021/01/23 03:46:17;;;;;;;35.43;27.67;;;;;;;4.10;84.32;97110.55;119214;1150;65223;-76
2021/01/23 03:48:44;;;;;;;32.37;21.53;;;;;;;4.10;84.53;97100.00;119251;1150;65283;-76
2021/01/23 03:51:10;;;;;;;28.15;20.80;;;;;;;4.12;84.35;97100.73;119252;1150;65119;-77
2021/01/23 03:53:37;;;;;;;27.97;20.47;;;;;;;4.12;83.95;97087.56;119210;1150;65547;-76
2021/01/23 03:56:03;;;;;;;27.87;19.17;;;;;;;4.10;84.17;97081.55;119247;1149;65129;-76
2021/01/23 03:58:29;;;;;;;27.97;20.00;;;;;;;4.12;83.68;97095.47;119249;1150;65104;-76
2021/01/23 04:00:56;;;;;;;25.27;20.00;;;;;;;4.12;84.25;97088.39;118942;1149;65108;-76
2021/01/23 04:03:23;;;;;;;28.27;22.00;;;;;;;4.12;84.01;97095.47;119263;1149;65111;-76
2021/01/23 04:05:49;;;;;;;32.13;20.70;;;;;;;4.12;84.34;97092.83;119271;1150;65108;-76
2021/01/23 04:08:15;;;;;;;28.87;21.87;;;;;;;4.11;84.08;97093.80;119252;1149;65165;-76
2021/01/23 04:10:42;;;;;;;30.83;23.77;;;;;;;4.08;84.03;97091.34;119230;1150;65252;-76
2021/01/23 04:13:09;;;;;;;27.67;21.20;;;;;;;4.11;84.25;97085.89;119244;1150;65104;-77
2021/01/23 04:15:37;;;;;;;28.23;20.60;;;;;;;4.17;84.32;97088.91;119252;1149;65118;-76
2021/01/23 04:18:05;;;;;;;27.97;18.73;;;;;;;4.21;84.43;97088.69;119115;1150;65060;-75
2021/01/23 04:20:33;;;;;;;29.63;19.63;;;;;;;4.27;84.15;97085.62;119312;1150;65108;-76
2021/01/23 04:22:59;;;;;;;24.10;19.23;;;;;;;4.30;84.00;97086.23;119263;1150;65242;-75
2021/01/23 04:25:26;;;;;;;27.97;21.17;;;;;;;4.35;84.31;97084.11;119262;1150;65149;-76
2021/01/23 04:27:52;;;;;;;33.00;22.13;;;;;;;4.41;84.31;97085.45;119214;1150;65101;-76
2021/01/23 04:30:19;;;;;;;25.30;20.07;;;;;;;4.46;84.02;97090.41;118958;1149;65151;-76
2021/01/23 04:32:45;;;;;;;28.10;18.25;;;;;;;4.51;84.51;97091.75;118647;1149;65111;-76
2021/01/23 04:35:13;;;;;;;24.82;16.75;;;;;;;4.59;84.22;97085.91;118644;1150;65239;-76
2021/01/23 04:37:40;;;;;;;21.23;15.13;;;;;;;4.69;84.30;97092.20;119169;1150;65156;-76
2021/01/23 04:40:09;;;;;;;19.40;13.05;;;;;;;4.84;84.88;97082.29;119264;1149;65047;-76
2021/01/23 04:42:41;;;;;;;21.17;14.73;;;;;;;4.94;84.15;97077.17;119280;1150;65111;-76
2021/01/23 04:45:09;;;;;;;19.10;14.17;;;;;;;5.03;84.75;97076.50;119258;1150;65065;-76
2021/01/23 04:47:36;;;;;;;16.07;12.53;;;;;;;5.17;84.33;97070.17;119282;1150;65220;-76
2021/01/23 04:50:08;;;;;;;16.00;11.70;;;;;;;5.29;84.49;97063.93;119215;1150;65124;-76
2021/01/23 04:52:38;;;;;;;16.13;13.17;;;;;;;5.39;83.92;97072.00;119274;1150;65114;-76
2021/01/23 04:55:07;;;;;;;13.10;9.83;;;;;;;5.49;84.17;97062.41;118942;1151;65101;-76
2021/01/23 04:57:34;;;;;;;14.40;8.30;;;;;;;5.57;83.86;97056.53;119202;1150;65134;-76
2021/01/23 05:00:00;;;;;;;11.85;7.40;;;;;;;5.76;84.07;97058.58;118972;1151;65271;-77
2021/01/23 05:02:26;;;;;;;11.67;7.00;;;;;;;5.88;83.86;97047.05;118720;1150;65135;-76
2021/01/23 05:04:59;;;;;;;13.97;9.43;;;;;;;6.00;83.66;97042.60;119240;1150;65120;-76
2021/01/23 05:07:28;;;;;;;14.80;10.07;;;;;;;6.09;83.73;97036.59;119266;1149;65156;-76
2021/01/23 05:09:56;;;;;;;15.03;10.03;;;;;;;6.14;83.28;97043.20;119225;1151;65143;-76
2021/01/23 05:12:43;;;;;;;18.17;9.87;;;;;;;6.17;82.95;97054.50;119200;1150;65155;-76
2021/01/23 05:15:19;;;;;;;12.90;8.30;;;;;;;6.17;83.03;97046.56;119270;1150;65120;-76
2021/01/23 05:18:05;;;;;;;8.20;5.80;;;;;;;6.21;83.10;97045.34;119236;1150;65094;-76
2021/01/23 05:20:40;;;;;;;14.57;11.03;;;;;;;6.26;82.49;97043.99;119228;1149;65089;-76
2021/01/23 05:23:14;;;;;;;16.90;11.70;;;;;;;6.25;82.17;97031.75;119212;1150;65623;-76
2021/01/23 05:25:42;;;;;;;15.90;12.47;;;;;;;6.22;81.96;97039.94;119231;1150;65132;-77
2021/01/23 05:28:11;;;;;;;16.80;11.63;;;;;;;6.16;82.38;97032.47;119298;1150;65101;-75
2021/01/23 05:30:39;;;;;;;17.40;12.23;;;;;;;6.13;82.10;97038.02;119285;1149;65143;-76
2021/01/23 05:33:16;;;;;;;15.07;11.50;;;;;;;6.12;82.24;97049.57;119207;1150;65125;-76
2021/01/23 05:35:59;;;;;;;13.63;10.13;;;;;;;6.07;81.82;97033.23;119208;1150;65123;-77
2021/01/23 05:38:28;;;;;;;16.63;12.70;;;;;;;6.07;81.68;97033.23;119216;1150;65271;-77
2021/01/23 05:41:09;;;;;;;15.75;11.95;;;;;;;6.04;81.56;97033.48;119206;1151;65130;-77
2021/01/23 05:43:41;;;;;;;16.60;12.95;;;;;;;5.99;81.63;97033.00;119258;1151;65131;-76
2021/01/23 05:46:10;;;;;;;16.17;12.63;;;;;;;5.92;81.24;97020.25;119286;1150;65573;-78
2021/01/23 05:48:43;;;;;;;15.93;12.60;;;;;;;5.86;81.54;97020.72;119267;1149;65118;-76
2021/01/23 05:51:10;;;;;;;13.50;10.85;;;;;;;5.81;81.68;97017.59;119216;1149;65235;-76
2021/01/23 05:53:37;;;;;;;12.55;10.60;;;;;;;5.82;81.37;97015.79;119231;1150;65168;-76
2021/01/23 05:56:05;;;;;;;17.33;11.13;;;;;;;5.85;81.56;97018.22;119225;1149;65121;-76
2021/01/23 05:58:39;;;;;;;17.25;11.95;;;;;;;5.85;81.74;97018.22;119246;1150;65123;-75
2021/01/23 06:01:08;;;;;;;18.70;12.93;;;;;;;5.82;81.60;97019.30;119284;1150;65149;-75
2021/01/23 06:03:58;;;;;;;18.13;13.17;;;;;;;5.82;81.64;97013.15;119255;1150;65034;-75
2021/01/23 06:06:24;;;;;;;21.60;14.57;;;;;;;5.80;81.66;97017.73;118621;1150;65136;-76
2021/01/23 06:08:52;;;;;;;16.73;13.63;;;;;;;5.79;81.50;97013.39;118808;1150;65114;-76
2021/01/23 06:11:19;;;;;;;18.20;15.50;;;;;;;5.76;81.35;97018.93;119201;1150;65148;-76
2021/01/23 06:13:50;;;;;;;22.13;16.23;;;;;;;5.72;81.49;97023.63;119237;1150;65159;-76
2021/01/23 06:16:32;;;;;;;20.77;16.57;;;;;;;5.69;81.61;97024.71;119161;1149;65063;-76
2021/01/23 06:19:26;;;;;;;20.33;15.27;;;;;;;5.64;81.43;97024.23;119230;1150;65201;-76
2021/01/23 06:21:53;;;;;;;28.03;18.50;;;;;;;5.59;81.45;97022.91;119224;1150;65536;-76
2021/01/23 06:24:32;;;;;;;30.53;21.83;;;;;;;5.54;81.47;97028.55;119214;1150;65033;-76
2021/01/23 06:27:00;;;;;;;63.27;37.67;;;;;;;5.53;81.32;97031.30;119253;1150;65216;-76
2021/01/23 06:29:33;;;;;;;419.00;238.20;;;;;;;5.54;81.34;97027.72;119263;1150;65108;-76
2021/01/23 06:32:12;;;;;;;353.15;201.95;;;;;;;5.55;81.75;97008.25;119235;1150;65168;-76
2021/01/23 06:34:59;;;;;;;325.73;172.90;;;;;;;5.56;81.71;97002.02;119231;1150;65124;-75
2021/01/23 06:37:39;;;;;;;322.73;156.53;;;;;;;5.55;81.85;97009.08;119230;1150;65102;-76
2021/01/23 06:40:22;;;;;;;172.47;91.50;;;;;;;5.54;81.45;97010.05;119174;1150;65124;-76
2021/01/23 06:42:49;;;;;;;108.97;72.47;;;;;;;5.55;81.67;97005.61;118885;1150;65269;-76
2021/01/23 06:45:33;;;;;;;50.13;33.20;;;;;;;5.59;81.90;97012.34;119202;1150;65248;-79
2021/01/23 06:48:00;;;;;;;33.87;21.20;;;;;;;5.64;81.87;97010.19;119236;1150;65122;-76
2021/01/23 06:50:39;;;;;;;32.80;23.45;;;;;;;5.71;81.92;97021.93;119242;1150;65111;-76
2021/01/23 06:53:26;;;;;;;22.63;16.13;;;;;;;5.80;81.59;97010.64;119252;1150;65175;-76
2021/01/23 06:55:56;;;;;;;17.47;10.37;;;;;;;5.85;81.72;97015.58;119216;1149;65143;-75
2021/01/23 06:58:27;;;;;;;15.72;9.65;;;;;;;5.91;81.63;97012.43;119222;1150;65111;-76
2021/01/23 07:01:00;;;;;;;10.37;5.27;;;;;;;6.01;81.76;97023.16;119304;1149;65226;-76
2021/01/23 07:03:30;;;;;;;6.70;4.00;;;;;;;6.14;81.79;97021.20;118664;1148;65107;-76
2021/01/23 07:06:02;;;;;;;4.53;2.93;;;;;;;6.26;81.72;97020.19;119043;1150;65120;-76
2021/01/23 07:08:31;;;;;;;4.75;3.10;;;;;;;6.43;81.77;97007.41;118796;1150;65258;-78
2021/01/23 07:11:17;;;;;;;3.50;2.57;;;;;;;6.62;81.50;97014.67;119269;1149;65114;-77
2021/01/23 07:14:06;;;;;;;3.97;3.00;;;;;;;6.76;81.33;97012.55;119195;1150;65114;-76
2021/01/23 07:16:36;;;;;;;5.17;4.03;;;;;;;6.90;81.06;97013.20;119188;1150;65091;-76
2021/01/23 07:19:07;;;;;;;5.90;4.70;;;;;;;7.00;81.16;97006.16;119161;1150;65134;-76
2021/01/23 07:21:39;;;;;;;4.27;3.50;;;;;;;7.09;80.78;97015.99;119113;1150;65143;-76
2021/01/23 07:24:09;;;;;;;4.50;3.10;;;;;;;7.15;80.72;97028.71;119091;1149;65184;-77
2021/01/23 07:26:36;;;;;;;4.03;3.25;;;;;;;7.20;80.74;97023.86;118939;1150;65190;-77
2021/01/23 07:29:03;;;;;;;5.97;3.60;;;;;;;7.25;80.13;97023.48;118954;1149;65084;-77
2021/01/23 07:31:32;;;;;;;4.33;3.70;;;;;;;7.29;80.38;97024.88;119053;1150;65133;-77
2021/01/23 07:34:01;;;;;;;3.77;3.00;;;;;;;7.34;80.06;97020.03;118754;1149;65121;-78
2021/01/23 07:36:39;;;;;;;5.33;3.83;;;;;;;7.38;80.12;97017.98;118783;1151;65095;-77
2021/01/23 07:39:13;;;;;;;5.65;4.00;;;;;;;7.42;79.64;97022.02;118719;1150;65127;-76
2021/01/23 07:41:47;;;;;;;5.97;3.97;;;;;;;7.44;79.76;97014.80;118695;1149;65219;-76
2021/01/23 07:44:16;;;;;;;6.87;4.00;;;;;;;7.47;79.47;97014.52;118741;1149;64999;-77
2021/01/23 07:46:44;;;;;;;4.93;3.33;;;;;;;7.50;79.67;97016.07;118630;1150;65159;-76
2021/01/23 07:49:24;;;;;;;3.75;2.80;;;;;;;7.55;79.40;97024.47;119262;1150;65171;-78
2021/01/23 07:52:08;;;;;;;5.27;3.33;;;;;;;7.60;79.14;97022.26;119247;1150;65114;-76
2021/01/23 07:54:49;;;;;;;7.43;3.37;;;;;;;7.65;79.05;97012.09;119223;1150;65153;-76
2021/01/23 07:57:16;;;;;;;4.77;3.77;;;;;;;7.69;78.91;97013.52;119229;1150;65082;-76
2021/01/23 07:59:46;;;;;;;6.43;3.80;;;;;;;7.73;78.77;97008.78;119178;1150;65198;-75
2021/01/23 08:02:17;;;;;;;4.03;2.83;;;;;;;7.78;78.83;96998.61;119271;1150;65267;-76
2021/01/23 08:04:49;;;;;;;4.60;3.80;;;;;;;7.81;78.91;97001.83;119264;1150;65137;-76
2021/01/23 08:07:19;;;;;;;4.57;2.60;;;;;;;7.84;78.30;97000.72;119268;1150;65051;-76
2021/01/23 08:10:07;;;;;;;3.73;2.53;;;;;;;7.88;78.53;96991.53;119227;1150;65140;-77
2021/01/23 08:12:34;;;;;;;4.73;3.20;;;;;;;7.91;78.40;96991.26;119086;1150;65203;-76
2021/01/23 08:15:03;;;;;;;6.37;3.00;;;;;;;7.96;77.71;97004.13;118998;1151;65129;-76
2021/01/23 08:17:40;;;;;;;5.37;2.70;;;;;;;8.01;77.87;97000.08;119264;1150;65351;-77
2021/01/23 08:20:09;;;;;;;4.40;2.47;;;;;;;8.05;77.81;96988.20;119215;1151;65152;-76
2021/01/23 08:23:11;;;;;;;5.93;3.67;;;;;;;8.09;77.68;96986.97;119265;1150;65213;-76
2021/01/23 08:25:42;;;;;;;5.00;2.83;;;;;;;8.13;77.61;96985.70;119230;1150;65268;-76
2021/01/23 08:28:09;;;;;;;5.37;3.40;;;;;;;8.16;77.17;96979.29;119261;1151;65143;-76
2021/01/23 08:30:36;;;;;;;5.47;4.20;;;;;;;8.16;77.77;96979.29;119230;1150;65140;-76
2021/01/23 08:33:04;;;;;;;6.43;4.43;;;;;;;8.18;77.22;96987.95;119252;1150;65108;-76
2021/01/23 08:35:33;;;;;;;5.07;3.80;;;;;;;8.22;76.96;96993.84;119272;1150;65107;-76
2021/01/23 08:37:59;;;;;;;6.07;4.03;;;;;;;8.25;76.89;96991.75;119267;1150;65101;-76
2021/01/23 08:40:29;;;;;;;5.70;4.20;;;;;;;8.30;77.02;96997.48;119245;1150;65967;-76
2021/01/23 08:42:55;;;;;;;4.83;3.90;;;;;;;8.32;77.04;97008.81;119239;1149;65152;-76
2021/01/23 08:45:24;;;;;;;5.40;4.03;;;;;;;8.34;76.82;97003.34;119279;1150;65130;-76
2021/01/23 08:47:50;;;;;;;7.40;4.67;;;;;;;8.34;76.99;97009.48;119266;1150;65095;-76
2021/01/23 08:50:17;;;;;;;6.83;5.27;;;;;;;8.33;76.93;97013.13;118901;1150;65159;-76
2021/01/23 08:52:44;;;;;;;5.33;4.10;;;;;;;8.35;76.76;97008.53;119156;1150;65120;-76
2021/01/23 08:55:11;;;;;;;6.30;4.17;;;;;;;8.35;76.69;97000.56;119225;1150;65634;-76
2021/01/23 08:57:37;;;;;;;5.47;4.00;;;;;;;8.38;76.50;97006.58;119243;1150;65111;-77
2021/01/23 09:00:08;;;;;;;8.87;4.87;;;;;;;8.38;76.70;97007.41;119198;1150;65114;-76
2021/01/23 09:02:34;;;;;;;7.10;4.75;;;;;;;8.38;76.67;97003.92;119275;1150;65207;-78
2021/01/23 09:05:01;;;;;;;6.70;4.17;;;;;;;8.35;76.60;96997.91;118935;1150;65143;-77
2021/01/23 09:07:28;;;;;;;8.00;4.10;;;;;;;8.33;76.49;96989.24;119287;1150;65150;-77
2021/01/23 09:09:54;;;;;;;5.33;4.00;;;;;;;8.31;76.47;96993.01;118984;1151;65115;-77
2021/01/23 09:12:20;;;;;;;6.43;3.90;;;;;;;8.30;76.06;97001.96;119250;1150;65146;-77
2021/01/23 09:14:47;;;;;;;4.30;3.33;;;;;;;8.28;75.92;96991.47;119223;1150;65114;-77
2021/01/23 09:17:13;;;;;;;5.17;3.43;;;;;;;8.31;76.21;96995.66;119255;1150;65268;-77
2021/01/23 09:19:40;;;;;;;4.30;3.00;;;;;;;8.35;75.97;97003.22;119183;1150;65123;-76
2021/01/23 09:22:06;;;;;;;4.80;3.47;;;;;;;8.46;76.05;96996.14;118933;1149;65217;-76
2021/01/23 09:24:32;;;;;;;5.80;4.35;;;;;;;8.56;76.36;96996.98;119207;1150;65165;-77
2021/01/23 09:26:59;;;;;;;6.60;4.95;;;;;;;8.64;75.96;96997.13;118987;1150;65276;-77
2021/01/23 09:29:25;;;;;;;6.50;5.23;;;;;;;8.69;75.87;96994.89;119269;1151;65182;-77
2021/01/23 09:31:51;;;;;;;7.00;4.70;;;;;;;8.77;75.28;96996.84;119233;1150;65131;-78
2021/01/23 09:34:18;;;;;;;8.47;4.83;;;;;;;8.83;75.14;96985.66;119305;1150;65262;-78
2021/01/23 09:36:45;;;;;;;9.87;5.30;;;;;;;8.86;74.73;96985.36;119215;1150;65120;-78
2021/01/23 09:39:11;;;;;;;8.77;5.63;;;;;;;8.93;74.94;96978.52;119253;1150;65206;-78
2021/01/23 09:41:37;;;;;;;10.07;4.50;;;;;;;9.01;74.54;96975.15;119269;1150;65111;-77
2021/01/23 09:44:04;;;;;;;6.27;3.60;;;;;;;9.12;74.84;96974.14;119243;1150;65193;-77
2021/01/23 09:46:31;;;;;;;4.25;3.00;;;;;;;9.21;74.13;96981.24;119273;1150;65137;-77
2021/01/23 09:48:57;;;;;;;5.75;3.40;;;;;;;9.27;74.24;96977.16;119224;1150;65121;-77
2021/01/23 09:51:23;;;;;;;6.97;3.17;;;;;;;9.33;74.10;96976.61;118843;1150;65206;-76
2021/01/23 09:53:50;;;;;;;3.75;3.00;;;;;;;9.38;73.33;96977.02;118435;1150;65723;-77
2021/01/23 09:56:17;;;;;;;5.53;3.17;;;;;;;9.43;73.47;96980.08;118653;1149;65117;-77
2021/01/23 09:58:43;;;;;;;5.47;3.00;;;;;;;9.51;73.03;96979.36;118705;1150;65120;-76
2021/01/23 10:01:09;;;;;;;5.73;3.40;;;;;;;9.57;73.35;96973.45;118689;1150;65112;-75
2021/01/23 10:03:36;;;;;;;3.63;2.27;;;;;;;9.63;72.57;96965.70;118666;1149;65220;-76
2021/01/23 10:06:02;;;;;;;3.70;2.37;;;;;;;9.75;72.48;96963.70;118646;1149;65156;-77
2021/01/23 10:08:28;;;;;;;3.47;2.50;;;;;;;9.89;72.02;96960.54;118714;1150;65548;-76
2021/01/23 10:10:55;;;;;;;3.90;2.20;;;;;;;10.05;71.58;96975.86;119181;1150;65156;-77
2021/01/23 10:13:22;;;;;;;5.10;2.57;;;;;;;10.21;71.89;96961.89;118673;1150;65168;-77
2021/01/23 10:15:48;;;;;;;2.37;1.80;;;;;;;10.36;71.10;96954.26;119039;1150;65164;-76
2021/01/23 10:18:14;;;;;;;2.83;1.63;;;;;;;10.57;71.38;96961.11;119227;1150;65497;-76
2021/01/23 10:20:41;;;;;;;2.60;1.75;;;;;;;10.75;71.03;96965.44;119002;1151;65233;-77
2021/01/23 10:23:08;;;;;;;3.07;2.30;;;;;;;10.94;70.58;96971.58;119238;1149;65530;-77
2021/01/23 10:25:34;;;;;;;3.80;2.40;;;;;;;11.10;70.29;96973.53;119209;1150;65455;-77
2021/01/23 10:28:01;;;;;;;2.37;1.73;;;;;;;11.24;69.60;96970.28;119262;1150;65089;-77
2021/01/23 10:30:27;;;;;;;2.57;1.27;;;;;;;11.29;69.54;96962.66;119223;1150;65127;-76
2021/01/23 10:32:54;;;;;;;2.60;1.55;;;;;;;11.28;68.89;96966.33;119234;1150;65092;-77
2021/01/23 10:35:20;;;;;;;2.10;1.50;;;;;;;11.16;69.37;96972.90;119298;1150;65143;-76
2021/01/23 10:37:46;;;;;;;5.83;3.17;;;;;;;11.06;69.07;96973.02;119265;1150;65242;-76
2021/01/23 10:40:13;;;;;;;4.27;2.80;;;;;;;10.96;69.16;96964.28;119282;1150;65143;-76
2021/01/23 10:42:39;;;;;;;2.87;1.80;;;;;;;10.83;68.56;96980.66;118875;1150;65130;-76
2021/01/23 10:45:09;;;;;;;1.77;1.40;;;;;;;10.69;69.20;96981.19;118672;1149;65105;-75
2021/01/23 10:47:37;;;;;;;3.47;1.67;;;;;;;10.59;68.82;96965.30;118641;1149;65484;-76
2021/01/23 10:50:05;;;;;;;2.10;1.85;;;;;;;10.50;68.60;96974.19;118626;1150;65187;-77
2021/01/23 10:52:32;;;;;;;2.70;1.63;;;;;;;10.46;69.20;96971.00;118684;1149;65213;-76
2021/01/23 10:54:59;;;;;;;2.60;1.90;;;;;;;10.47;69.60;96966.51;118678;1150;65558;-77
2021/01/23 10:57:25;;;;;;;2.40;1.90;;;;;;;10.49;69.46;96968.03;118925;1151;65152;-78
2021/01/23 10:59:52;;;;;;;3.30;2.10;;;;;;;10.50;69.53;96964.37;118658;1150;65114;-77
2021/01/23 11:02:18;;;;;;;2.63;2.17;;;;;;;10.51;68.98;96967.89;119177;1150;65220;-77
2021/01/23 11:04:44;;;;;;;3.30;2.20;;;;;;;10.51;69.02;96962.56;118963;1150;65102;-77
2021/01/23 11:07:11;;;;;;;2.87;2.20;;;;;;;10.49;68.74;96970.70;118646;1149;65552;-77
2021/01/23 11:09:37;;;;;;;2.87;1.93;;;;;;;10.47;69.01;96967.34;119198;1150;65092;-77
2021/01/23 11:12:05;;;;;;;4.30;2.00;;;;;;;10.47;69.13;96963.84;119146;1150;65108;-77
2021/01/23 11:14:33;;;;;;;3.10;1.53;;;;;;;10.39;68.71;96966.44;118650;1150;65085;-77
2021/01/23 11:17:00;;;;;;;3.90;2.40;;;;;;;10.32;69.42;96974.17;119093;1150;65184;-77
2021/01/23 11:19:27;;;;;;;4.10;3.15;;;;;;;10.26;68.78;96985.41;119228;1150;65083;-77
2021/01/23 11:21:55;;;;;;;3.33;2.80;;;;;;;10.16;69.24;96976.64;119132;1151;65552;-77
2021/01/23 11:24:21;;;;;;;4.97;3.10;;;;;;;10.07;69.48;96975.72;119254;1150;65087;-75
2021/01/23 11:26:48;;;;;;;4.67;3.47;;;;;;;10.02;69.22;96967.34;119229;1150;65194;-78
2021/01/23 11:29:15;;;;;;;5.67;3.43;;;;;;;10.04;69.86;96968.87;119263;1149;65129;-78
2021/01/23 11:31:42;;;;;;;3.93;2.83;;;;;;;10.07;69.87;96965.91;119266;1150;65065;-78
2021/01/23 11:34:08;;;;;;;4.95;3.45;;;;;;;10.06;69.99;96956.26;119256;1149;65120;-78